sensor_id;sensor_type;location;lat;lon;timestamp;pressure;altitude;pressure_sealevel;temperature;humidity
64698;BME280;51124;53.394;-6.294;2023-02-11T00:01:15;102774.69;;;20.89;11.16
64698;BME280;51124;53.394;-6.294;2023-02-11T00:03:42;102776.53;;;20.38;12.06
64698;BME280;51124;53.394;-6.294;2023-02-11T00:06:16;102778.89;;;21.26;11.61
64698;BME280;51124;53.394;-6.294;2023-02-11T00:08:50;102784.50;;;20.70;11.64
64698;BME280;51124;53.394;-6.294;2023-02-11T00:11:25;102789.84;;;20.76;11.49
64698;BME280;51124;53.394;-6.294;2023-02-11T00:13:49;102790.67;;;21.12;11.42
64698;BME280;51124;53.394;-6.294;2023-02-11T00:16:23;102784.68;;;19.53;11.16
64698;BME280;51124;53.394;-6.294;2023-02-11T00:18:58;102777.64;;;18.72;10.75
64698;BME280;51124;53.394;-6.294;2023-02-11T00:21:24;102772.68;;;18.53;10.31
64698;BME280;51124;53.394;-6.294;2023-02-11T00:23:47;102769.51;;;19.16;10.02
64698;BME280;51124;53.394;-6.294;2023-02-11T00:26:22;102766.28;;;18.37;9.97
64698;BME280;51124;53.394;-6.294;2023-02-11T00:28:47;102765.43;;;18.69;9.69
64698;BME280;51124;53.394;-6.294;2023-02-11T00:31:22;102767.83;;;18.26;9.45
64698;BME280;51124;53.394;-6.294;2023-02-11T00:33:56;102761.30;;;17.93;9.37
64698;BME280;51124;53.394;-6.294;2023-02-11T00:36:29;102762.98;;;18.33;9.35
64698;BME280;51124;53.394;-6.294;2023-02-11T00:39:03;102759.88;;;18.71;9.19
64698;BME280;51124;53.394;-6.294;2023-02-11T00:41:37;102756.15;;;18.68;9.14
64698;BME280;51124;53.394;-6.294;2023-02-11T00:44:10;102754.99;;;18.50;9.09
64698;BME280;51124;53.394;-6.294;2023-02-11T00:46:44;102748.58;;;17.88;8.97
64698;BME280;51124;53.394;-6.294;2023-02-11T00:49:17;102755.16;;;18.59;8.97
64698;BME280;51124;53.394;-6.294;2023-02-11T00:51:51;102748.99;;;18.62;8.86
64698;BME280;51124;53.394;-6.294;2023-02-11T00:54:24;102755.06;;;18.52;8.84
64698;BME280;51124;53.394;-6.294;2023-02-11T00:56:58;102761.67;;;18.67;8.73
64698;BME280;51124;53.394;-6.294;2023-02-11T00:59:31;102765.57;;;17.70;8.82
64698;BME280;51124;53.394;-6.294;2023-02-11T01:02:04;102774.99;;;18.49;8.75
64698;BME280;51124;53.394;-6.294;2023-02-11T01:04:38;102774.76;;;18.08;8.68
64698;BME280;51124;53.394;-6.294;2023-02-11T01:07:13;102778.93;;;18.12;8.66
64698;BME280;51124;53.394;-6.294;2023-02-11T01:09:39;102777.84;;;18.57;8.63
64698;BME280;51124;53.394;-6.294;2023-02-11T01:12:04;102779.77;;;18.45;8.65
64698;BME280;51124;53.394;-6.294;2023-02-11T01:14:30;102774.51;;;18.97;8.57
64698;BME280;51124;53.394;-6.294;2023-02-11T01:16:55;102772.82;;;18.52;8.65
64698;BME280;51124;53.394;-6.294;2023-02-11T01:19:20;102772.37;;;18.61;8.55
64698;BME280;51124;53.394;-6.294;2023-02-11T01:21:45;102775.01;;;18.20;8.65
64698;BME280;51124;53.394;-6.294;2023-02-11T01:24:11;102772.30;;;18.41;8.51
64698;BME280;51124;53.394;-6.294;2023-02-11T01:26:36;102769.88;;;18.89;8.63
64698;BME280;51124;53.394;-6.294;2023-02-11T01:29:01;102775.55;;;18.90;8.55
64698;BME280;51124;53.394;-6.294;2023-02-11T01:31:27;102776.15;;;18.02;8.53
64698;BME280;51124;53.394;-6.294;2023-02-11T01:33:52;102772.24;;;18.31;8.61
64698;BME280;51124;53.394;-6.294;2023-02-11T01:36:18;102763.89;;;18.08;8.64
64698;BME280;51124;53.394;-6.294;2023-02-11T01:38:43;102754.61;;;18.50;8.59
64698;BME280;51124;53.394;-6.294;2023-02-11T01:41:11;102751.03;;;19.17;8.49
64698;BME280;51124;53.394;-6.294;2023-02-11T01:43:39;102742.70;;;17.62;8.81
64698;BME280;51124;53.394;-6.294;2023-02-11T01:46:23;102743.09;;;18.99;8.70
64698;BME280;51124;53.394;-6.294;2023-02-11T01:48:35;102738.01;;;18.36;8.59
64698;BME280;51124;53.394;-6.294;2023-02-11T01:51:04;102731.47;;;18.61;8.68
64698;BME280;51124;53.394;-6.294;2023-02-11T01:53:30;102730.25;;;18.74;8.49
64698;BME280;51124;53.394;-6.294;2023-02-11T01:55:56;102731.02;;;19.27;8.69
64698;BME280;51124;53.394;-6.294;2023-02-11T01:58:23;102726.76;;;19.03;8.65
64698;BME280;51124;53.394;-6.294;2023-02-11T02:00:48;102726.98;;;18.43;8.56
64698;BME280;51124;53.394;-6.294;2023-02-11T02:03:16;102724.24;;;18.05;8.54
64698;BME280;51124;53.394;-6.294;2023-02-11T02:05:46;102724.26;;;18.49;8.55
64698;BME280;51124;53.394;-6.294;2023-02-11T02:08:18;102726.51;;;17.88;8.58
64698;BME280;51124;53.394;-6.294;2023-02-11T02:10:47;102730.44;;;21.12;8.73
64698;BME280;51124;53.394;-6.294;2023-02-11T02:13:13;102730.55;;;21.02;9.14
64698;BME280;51124;53.394;-6.294;2023-02-11T02:15:43;102729.00;;;18.95;9.36
64698;BME280;51124;53.394;-6.294;2023-02-11T02:18:23;102729.13;;;19.46;9.17
64698;BME280;51124;53.394;-6.294;2023-02-11T02:23:19;102721.20;;;20.54;10.24
64698;BME280;51124;53.394;-6.294;2023-02-11T02:26:25;102721.88;;;21.06;10.46
64698;BME280;51124;53.394;-6.294;2023-02-11T02:28:21;102722.63;;;21.29;10.56
64698;BME280;51124;53.394;-6.294;2023-02-11T02:30:50;102720.86;;;20.19;10.78
64698;BME280;51124;53.394;-6.294;2023-02-11T02:33:23;102723.73;;;20.92;10.85
64698;BME280;51124;53.394;-6.294;2023-02-11T02:35:38;102727.07;;;20.27;10.94
64698;BME280;51124;53.394;-6.294;2023-02-11T02:38:10;102729.91;;;20.45;10.92
64698;BME280;51124;53.394;-6.294;2023-02-11T02:40:41;102731.25;;;20.25;11.03
64698;BME280;51124;53.394;-6.294;2023-02-11T02:43:10;102736.35;;;20.54;11.08
64698;BME280;51124;53.394;-6.294;2023-02-11T02:45:36;102737.88;;;19.88;11.13
64698;BME280;51124;53.394;-6.294;2023-02-11T02:48:02;102733.01;;;20.69;11.06
64698;BME280;51124;53.394;-6.294;2023-02-11T02:50:30;102732.97;;;20.24;11.12
64698;BME280;51124;53.394;-6.294;2023-02-11T02:53:10;102734.94;;;20.74;11.16
64698;BME280;51124;53.394;-6.294;2023-02-11T02:55:43;102736.68;;;20.62;11.08
64698;BME280;51124;53.394;-6.294;2023-02-11T02:58:20;102733.19;;;20.54;11.11
64698;BME280;51124;53.394;-6.294;2023-02-11T03:00:45;102728.12;;;20.46;11.14
64698;BME280;51124;53.394;-6.294;2023-02-11T03:03:15;102720.28;;;20.17;11.14
64698;BME280;51124;53.394;-6.294;2023-02-11T03:05:40;102717.37;;;20.00;11.16
64698;BME280;51124;53.394;-6.294;2023-02-11T03:08:04;102710.43;;;20.69;11.23
64698;BME280;51124;53.394;-6.294;2023-02-11T03:10:33;102708.31;;;18.63;11.02
64698;BME280;51124;53.394;-6.294;2023-02-11T03:13:01;102703.75;;;18.01;10.58
64698;BME280;51124;53.394;-6.294;2023-02-11T03:15:29;102701.95;;;18.06;10.24
64698;BME280;51124;53.394;-6.294;2023-02-11T03:17:59;102700.28;;;18.74;10.01
64698;BME280;51124;53.394;-6.294;2023-02-11T03:20:27;102695.56;;;18.21;9.82
64698;BME280;51124;53.394;-6.294;2023-02-11T03:22:57;102696.11;;;17.92;9.70
64698;BME280;51124;53.394;-6.294;2023-02-11T03:25:29;102698.49;;;18.28;9.34
64698;BME280;51124;53.394;-6.294;2023-02-11T03:28:01;102699.03;;;17.95;9.24
64698;BME280;51124;53.394;-6.294;2023-02-11T03:30:31;102700.53;;;18.69;9.12
64698;BME280;51124;53.394;-6.294;2023-02-11T03:33:06;102686.88;;;18.83;9.01
64698;BME280;51124;53.394;-6.294;2023-02-11T03:35:37;102684.72;;;18.01;8.93
64698;BME280;51124;53.394;-6.294;2023-02-11T03:38:08;102684.13;;;17.65;8.93
64698;BME280;51124;53.394;-6.294;2023-02-11T03:40:39;102682.14;;;18.37;8.90
64698;BME280;51124;53.394;-6.294;2023-02-11T03:43:07;102682.33;;;17.80;8.85
64698;BME280;51124;53.394;-6.294;2023-02-11T03:45:36;102687.09;;;17.79;8.72
64698;BME280;51124;53.394;-6.294;2023-02-11T03:48:05;102688.53;;;18.44;8.63
64698;BME280;51124;53.394;-6.294;2023-02-11T03:50:33;102687.45;;;18.05;8.61
64698;BME280;51124;53.394;-6.294;2023-02-11T03:53:02;102687.41;;;18.39;8.69
64698;BME280;51124;53.394;-6.294;2023-02-11T03:55:28;102688.43;;;17.72;8.53
64698;BME280;51124;53.394;-6.294;2023-02-11T03:57:54;102689.43;;;18.05;8.58
64698;BME280;51124;53.394;-6.294;2023-02-11T04:00:20;102686.44;;;18.08;8.49
64698;BME280;51124;53.394;-6.294;2023-02-11T04:02:45;102691.81;;;18.60;8.63
64698;BME280;51124;53.394;-6.294;2023-02-11T04:05:14;102694.05;;;17.49;8.59
64698;BME280;51124;53.394;-6.294;2023-02-11T04:07:40;102693.51;;;17.70;8.62
64698;BME280;51124;53.394;-6.294;2023-02-11T04:10:06;102695.10;;;18.15;8.58
64698;BME280;51124;53.394;-6.294;2023-02-11T04:12:32;102691.02;;;17.37;8.58
64698;BME280;51124;53.394;-6.294;2023-02-11T04:14:57;102694.20;;;17.93;8.43
64698;BME280;51124;53.394;-6.294;2023-02-11T04:17:22;102695.38;;;18.85;8.48
64698;BME280;51124;53.394;-6.294;2023-02-11T04:19:48;102696.15;;;18.14;8.48
64698;BME280;51124;53.394;-6.294;2023-02-11T04:22:13;102701.06;;;18.00;8.49
64698;BME280;51124;53.394;-6.294;2023-02-11T04:24:38;102699.15;;;18.24;8.51
64698;BME280;51124;53.394;-6.294;2023-02-11T04:27:04;102701.77;;;18.31;8.54
64698;BME280;51124;53.394;-6.294;2023-02-11T04:29:30;102700.62;;;18.75;8.53
64698;BME280;51124;53.394;-6.294;2023-02-11T04:31:55;102702.28;;;18.48;8.45
64698;BME280;51124;53.394;-6.294;2023-02-11T04:34:20;102707.06;;;18.17;8.48
64698;BME280;51124;53.394;-6.294;2023-02-11T04:36:46;102702.40;;;19.27;8.47
64698;BME280;51124;53.394;-6.294;2023-02-11T04:39:11;102704.21;;;17.78;8.65
64698;BME280;51124;53.394;-6.294;2023-02-11T04:41:37;102705.18;;;18.23;8.56
64698;BME280;51124;53.394;-6.294;2023-02-11T04:44:02;102701.21;;;18.03;8.56
64698;BME280;51124;53.394;-6.294;2023-02-11T04:46:27;102703.52;;;18.19;8.49
64698;BME280;51124;53.394;-6.294;2023-02-11T04:48:53;102701.48;;;19.15;8.56
64698;BME280;51124;53.394;-6.294;2023-02-11T04:51:18;102704.28;;;18.32;8.61
64698;BME280;51124;53.394;-6.294;2023-02-11T04:53:44;102706.55;;;17.12;8.59
64698;BME280;51124;53.394;-6.294;2023-02-11T04:56:09;102709.39;;;17.25;8.50
64698;BME280;51124;53.394;-6.294;2023-02-11T04:58:34;102709.83;;;17.81;8.41
64698;BME280;51124;53.394;-6.294;2023-02-11T05:01:05;102707.91;;;18.16;8.42
64698;BME280;51124;53.394;-6.294;2023-02-11T05:03:30;102711.49;;;18.96;8.49
64698;BME280;51124;53.394;-6.294;2023-02-11T05:05:56;102723.15;;;20.87;8.85
64698;BME280;51124;53.394;-6.294;2023-02-11T05:08:21;102728.97;;;19.87;9.34
64698;BME280;51124;53.394;-6.294;2023-02-11T05:10:47;102723.38;;;18.55;9.36
64698;BME280;51124;53.394;-6.294;2023-02-11T05:13:13;102724.93;;;22.16;9.32
64698;BME280;51124;53.394;-6.294;2023-02-11T05:15:38;102726.05;;;20.90;10.00
64698;BME280;51124;53.394;-6.294;2023-02-11T05:18:04;102725.82;;;21.20;10.28
64698;BME280;51124;53.394;-6.294;2023-02-11T05:20:30;102729.88;;;20.51;10.53
64698;BME280;51124;53.394;-6.294;2023-02-11T05:22:56;102729.05;;;20.55;10.65
64698;BME280;51124;53.394;-6.294;2023-02-11T05:25:21;102731.16;;;20.45;10.81
64698;BME280;51124;53.394;-6.294;2023-02-11T05:27:47;102723.88;;;20.81;10.88
64698;BME280;51124;53.394;-6.294;2023-02-11T05:30:13;102721.36;;;20.72;10.83
64698;BME280;51124;53.394;-6.294;2023-02-11T05:32:39;102722.02;;;19.86;11.01
64698;BME280;51124;53.394;-6.294;2023-02-11T05:35:05;102723.78;;;20.02;11.03
64698;BME280;51124;53.394;-6.294;2023-02-11T05:37:31;102725.25;;;20.12;11.03
64698;BME280;51124;53.394;-6.294;2023-02-11T05:39:57;102724.39;;;20.28;11.05
64698;BME280;51124;53.394;-6.294;2023-02-11T05:42:23;102725.22;;;20.11;11.14
64698;BME280;51124;53.394;-6.294;2023-02-11T05:44:48;102730.18;;;20.51;11.10
64698;BME280;51124;53.394;-6.294;2023-02-11T05:47:14;102733.77;;;20.01;11.06
64698;BME280;51124;53.394;-6.294;2023-02-11T05:49:40;102731.66;;;20.08;11.05
64698;BME280;51124;53.394;-6.294;2023-02-11T05:52:05;102731.95;;;19.39;11.27
64698;BME280;51124;53.394;-6.294;2023-02-11T05:54:32;102735.63;;;19.57;11.16
64698;BME280;51124;53.394;-6.294;2023-02-11T05:56:57;102733.96;;;20.17;11.22
64698;BME280;51124;53.394;-6.294;2023-02-11T05:59:23;102734.50;;;20.46;11.04
64698;BME280;51124;53.394;-6.294;2023-02-11T06:01:49;102732.39;;;19.94;11.19
64698;BME280;51124;53.394;-6.294;2023-02-11T06:04:14;102737.14;;;18.78;11.09
64698;BME280;51124;53.394;-6.294;2023-02-11T06:06:40;102737.00;;;17.61;10.69
64698;BME280;51124;53.394;-6.294;2023-02-11T06:09:05;102736.09;;;17.83;10.34
64698;BME280;51124;53.394;-6.294;2023-02-11T06:11:30;102737.96;;;18.05;9.96
64698;BME280;51124;53.394;-6.294;2023-02-11T06:13:55;102739.49;;;17.96;9.87
64698;BME280;51124;53.394;-6.294;2023-02-11T06:16:21;102737.69;;;18.41;9.64
64698;BME280;51124;53.394;-6.294;2023-02-11T06:18:46;102734.69;;;17.76;9.43
64698;BME280;51124;53.394;-6.294;2023-02-11T06:21:12;102735.88;;;18.05;9.40
64698;BME280;51124;53.394;-6.294;2023-02-11T06:23:38;102730.42;;;17.75;9.24
64698;BME280;51124;53.394;-6.294;2023-02-11T06:26:05;102727.29;;;17.11;9.16
64698;BME280;51124;53.394;-6.294;2023-02-11T06:28:31;102721.04;;;17.75;8.95
64698;BME280;51124;53.394;-6.294;2023-02-11T06:30:56;102719.95;;;17.67;8.89
64698;BME280;51124;53.394;-6.294;2023-02-11T06:33:22;102722.39;;;18.29;8.81
64698;BME280;51124;53.394;-6.294;2023-02-11T06:35:47;102724.74;;;17.70;8.96
64698;BME280;51124;53.394;-6.294;2023-02-11T06:38:12;102723.12;;;16.97;8.86
64698;BME280;51124;53.394;-6.294;2023-02-11T06:40:37;102726.01;;;18.56;8.67
64698;BME280;51124;53.394;-6.294;2023-02-11T06:43:03;102727.33;;;18.21;8.76
64698;BME280;51124;53.394;-6.294;2023-02-11T06:45:28;102728.84;;;17.50;8.70
64698;BME280;51124;53.394;-6.294;2023-02-11T06:47:53;102722.60;;;17.94;8.61
64698;BME280;51124;53.394;-6.294;2023-02-11T06:50:19;102718.21;;;18.13;8.51
64698;BME280;51124;53.394;-6.294;2023-02-11T06:52:44;102720.54;;;17.65;8.53
64698;BME280;51124;53.394;-6.294;2023-02-11T06:55:09;102722.47;;;18.23;8.49
64698;BME280;51124;53.394;-6.294;2023-02-11T06:57:35;102720.95;;;18.07;8.55
64698;BME280;51124;53.394;-6.294;2023-02-11T06:59:58;102723.34;;;18.26;8.58
64698;BME280;51124;53.394;-6.294;2023-02-11T07:02:31;102727.54;;;17.99;8.60
64698;BME280;51124;53.394;-6.294;2023-02-11T07:05:06;102724.87;;;17.92;8.45
64698;BME280;51124;53.394;-6.294;2023-02-11T07:07:39;102727.91;;;17.73;8.52
64698;BME280;51124;53.394;-6.294;2023-02-11T07:10:13;102726.81;;;18.15;8.45
64698;BME280;51124;53.394;-6.294;2023-02-11T07:12:46;102738.74;;;17.85;8.44
64698;BME280;51124;53.394;-6.294;2023-02-11T07:15:20;102737.75;;;17.41;8.38
64698;BME280;51124;53.394;-6.294;2023-02-11T07:17:53;102747.43;;;17.73;8.50
64698;BME280;51124;53.394;-6.294;2023-02-11T07:20:26;102746.80;;;17.57;8.50
64698;BME280;51124;53.394;-6.294;2023-02-11T07:23:00;102739.55;;;17.96;8.41
64698;BME280;51124;53.394;-6.294;2023-02-11T07:25:34;102739.61;;;17.86;8.42
64698;BME280;51124;53.394;-6.294;2023-02-11T07:28:08;102739.56;;;18.62;8.35
64698;BME280;51124;53.394;-6.294;2023-02-11T07:30:41;102739.02;;;18.51;8.41
64698;BME280;51124;53.394;-6.294;2023-02-11T07:33:15;102742.86;;;17.56;8.62
64698;BME280;51124;53.394;-6.294;2023-02-11T07:35:48;102749.30;;;17.97;8.54
64698;BME280;51124;53.394;-6.294;2023-02-11T07:38:22;102752.25;;;18.18;8.51
64698;BME280;51124;53.394;-6.294;2023-02-11T07:40:58;102755.35;;;18.11;8.56
64698;BME280;51124;53.394;-6.294;2023-02-11T07:43:22;102752.44;;;18.85;8.51
64698;BME280;51124;53.394;-6.294;2023-02-11T07:45:55;102755.02;;;18.17;8.62
64698;BME280;51124;53.394;-6.294;2023-02-11T07:48:28;102761.27;;;17.47;8.57
64698;BME280;51124;53.394;-6.294;2023-02-11T07:51:07;102769.49;;;17.19;8.44
64698;BME280;51124;53.394;-6.294;2023-02-11T07:53:30;102770.67;;;17.58;8.53
64698;BME280;51124;53.394;-6.294;2023-02-11T07:56:06;102770.96;;;18.37;8.41
64698;BME280;51124;53.394;-6.294;2023-02-11T07:58:30;102771.12;;;18.49;8.35
64698;BME280;51124;53.394;-6.294;2023-02-11T08:01:06;102769.77;;;20.60;8.75
64698;BME280;51124;53.394;-6.294;2023-02-11T08:03:30;102771.75;;;20.28;9.28
64698;BME280;51124;53.394;-6.294;2023-02-11T08:06:06;102768.70;;;17.41;9.50
64698;BME280;51124;53.394;-6.294;2023-02-11T08:08:29;102770.39;;;20.55;9.23
64698;BME280;51124;53.394;-6.294;2023-02-11T08:11:05;102774.95;;;21.40;9.74
64698;BME280;51124;53.394;-6.294;2023-02-11T08:13:29;102774.15;;;20.79;10.11
64698;BME280;51124;53.394;-6.294;2023-02-11T08:16:04;102767.41;;;20.33;10.46
64698;BME280;51124;53.394;-6.294;2023-02-11T08:18:28;102771.54;;;20.19;10.54
64698;BME280;51124;53.394;-6.294;2023-02-11T08:21:04;102771.37;;;19.89;10.65
64698;BME280;51124;53.394;-6.294;2023-02-11T08:23:28;102775.07;;;20.70;10.76
64698;BME280;51124;53.394;-6.294;2023-02-11T08:26:03;102776.88;;;19.63;10.98
64698;BME280;51124;53.394;-6.294;2023-02-11T08:28:39;102779.69;;;19.78;10.83
64698;BME280;51124;53.394;-6.294;2023-02-11T08:31:05;102776.93;;;19.94;10.95
64698;BME280;51124;53.394;-6.294;2023-02-11T08:33:28;102774.63;;;20.35;10.86
64698;BME280;51124;53.394;-6.294;2023-02-11T08:36:08;102773.31;;;20.45;10.90
64698;BME280;51124;53.394;-6.294;2023-02-11T08:38:31;102779.47;;;20.41;10.84
64698;BME280;51124;53.394;-6.294;2023-02-11T08:41:06;102785.98;;;20.08;10.92
64698;BME280;51124;53.394;-6.294;2023-02-11T08:43:41;102791.84;;;19.73;11.06
64698;BME280;51124;53.394;-6.294;2023-02-11T08:46:06;102788.94;;;19.95;10.90
64698;BME280;51124;53.394;-6.294;2023-02-11T08:48:41;102793.14;;;19.79;11.00
64698;BME280;51124;53.394;-6.294;2023-02-11T08:51:17;102799.50;;;20.34;11.02
64698;BME280;51124;53.394;-6.294;2023-02-11T08:53:41;102806.02;;;19.85;10.98
64698;BME280;51124;53.394;-6.294;2023-02-11T08:56:17;102806.68;;;19.63;11.09
64698;BME280;51124;53.394;-6.294;2023-02-11T08:58:42;102808.42;;;19.71;11.07
64698;BME280;51124;53.394;-6.294;2023-02-11T09:01:18;102810.25;;;17.98;10.88
64698;BME280;51124;53.394;-6.294;2023-02-11T09:03:43;102811.54;;;17.33;10.40
64698;BME280;51124;53.394;-6.294;2023-02-11T09:06:17;102812.16;;;17.52;9.97
64698;BME280;51124;53.394;-6.294;2023-02-11T09:08:52;102816.05;;;18.61;9.69
64698;BME280;51124;53.394;-6.294;2023-02-11T09:11:17;102817.13;;;17.89;9.58
64698;BME280;51124;53.394;-6.294;2023-02-11T09:13:42;102820.56;;;17.67;9.35
64698;BME280;51124;53.394;-6.294;2023-02-11T09:16:06;102819.07;;;17.77;9.17
64698;BME280;51124;53.394;-6.294;2023-02-11T09:18:40;102819.08;;;18.48;9.01
64698;BME280;51124;53.394;-6.294;2023-02-11T09:21:14;102826.35;;;17.28;8.92
64698;BME280;51124;53.394;-6.294;2023-02-11T09:23:48;102832.13;;;18.97;8.78
64698;BME280;51124;53.394;-6.294;2023-02-11T09:26:23;102837.13;;;18.25;8.81
64698;BME280;51124;53.394;-6.294;2023-02-11T09:28:47;102837.33;;;18.11;8.59
64698;BME280;51124;53.394;-6.294;2023-02-11T09:31:22;102832.69;;;17.78;8.63
64698;BME280;51124;53.394;-6.294;2023-02-11T09:33:49;102830.97;;;18.53;8.52
64698;BME280;51124;53.394;-6.294;2023-02-11T09:36:14;102825.74;;;17.80;8.49
64698;BME280;51124;53.394;-6.294;2023-02-11T09:38:38;102827.82;;;17.74;8.48
64698;BME280;51124;53.394;-6.294;2023-02-11T09:41:58;102836.82;;;17.96;8.45
64698;BME280;51124;53.394;-6.294;2023-02-11T09:43:47;102833.78;;;17.82;8.44
64698;BME280;51124;53.394;-6.294;2023-02-11T09:46:14;102834.19;;;18.05;8.39
64698;BME280;51124;53.394;-6.294;2023-02-11T09:48:40;102840.74;;;18.23;8.32
64698;BME280;51124;53.394;-6.294;2023-02-11T09:51:05;102839.72;;;18.19;8.25
64698;BME280;51124;53.394;-6.294;2023-02-11T09:53:39;102843.79;;;17.39;8.31
64698;BME280;51124;53.394;-6.294;2023-02-11T09:56:11;102847.73;;;17.75;8.23
64698;BME280;51124;53.394;-6.294;2023-02-11T09:58:38;102854.73;;;18.04;8.23
64698;BME280;51124;53.394;-6.294;2023-02-11T10:01:07;102855.30;;;18.35;8.20
64698;BME280;51124;53.394;-6.294;2023-02-11T10:03:55;102858.77;;;18.17;8.28
64698;BME280;51124;53.394;-6.294;2023-02-11T10:06:16;102865.56;;;17.83;8.33
64698;BME280;51124;53.394;-6.294;2023-02-11T10:08:38;102859.75;;;17.87;8.21
64698;BME280;51124;53.394;-6.294;2023-02-11T10:11:09;102861.67;;;17.87;8.22
64698;BME280;51124;53.394;-6.294;2023-02-11T10:13:46;102864.64;;;18.55;8.28
64698;BME280;51124;53.394;-6.294;2023-02-11T10:16:12;102862.51;;;17.88;8.25
64698;BME280;51124;53.394;-6.294;2023-02-11T10:18:40;102859.45;;;18.78;8.18
64698;BME280;51124;53.394;-6.294;2023-02-11T10:21:14;102861.51;;;18.49;8.15
64698;BME280;51124;53.394;-6.294;2023-02-11T10:23:42;102858.84;;;18.36;8.11
64698;BME280;51124;53.394;-6.294;2023-02-11T10:26:11;102863.40;;;18.35;8.15
64698;BME280;51124;53.394;-6.294;2023-02-11T10:28:35;102866.06;;;19.55;8.18
64698;BME280;51124;53.394;-6.294;2023-02-11T10:31:13;102867.36;;;18.32;8.32
64698;BME280;51124;53.394;-6.294;2023-02-11T10:33:42;102866.03;;;17.64;8.36
64698;BME280;51124;53.394;-6.294;2023-02-11T10:36:10;102870.59;;;18.78;8.28
64698;BME280;51124;53.394;-6.294;2023-02-11T10:38:35;102872.43;;;18.14;8.30
64698;BME280;51124;53.394;-6.294;2023-02-11T10:41:09;102878.65;;;18.13;8.38
64698;BME280;51124;53.394;-6.294;2023-02-11T10:43:36;102882.97;;;18.04;8.38
64698;BME280;51124;53.394;-6.294;2023-02-11T10:46:14;102877.10;;;17.15;8.27
64698;BME280;51124;53.394;-6.294;2023-02-11T10:48:42;102877.54;;;17.64;8.21
64698;BME280;51124;53.394;-6.294;2023-02-11T10:51:15;102872.58;;;17.99;8.13
64698;BME280;51124;53.394;-6.294;2023-02-11T10:53:39;102877.53;;;18.01;8.18
64698;BME280;51124;53.394;-6.294;2023-02-11T10:56:20;102877.80;;;20.37;8.27
64698;BME280;51124;53.394;-6.294;2023-02-11T10:58:53;102878.19;;;20.43;8.76
64698;BME280;51124;53.394;-6.294;2023-02-11T11:01:18;102876.10;;;20.57;9.00
64698;BME280;51124;53.394;-6.294;2023-02-11T11:03:52;102872.26;;;18.59;9.21
64698;BME280;51124;53.394;-6.294;2023-02-11T11:06:29;102869.99;;;21.29;9.17
64698;BME280;51124;53.394;-6.294;2023-02-11T11:08:54;102865.64;;;21.04;9.53
64698;BME280;51124;53.394;-6.294;2023-02-11T11:11:28;102862.21;;;20.66;9.99
64698;BME280;51124;53.394;-6.294;2023-02-11T11:14:01;102869.96;;;20.46;10.14
64698;BME280;51124;53.394;-6.294;2023-02-11T11:16:35;102870.46;;;20.16;10.34
64698;BME280;51124;53.394;-6.294;2023-02-11T11:19:21;102873.50;;;20.57;10.42
64698;BME280;51124;53.394;-6.294;2023-02-11T11:21:39;102869.47;;;20.14;10.45
64698;BME280;51124;53.394;-6.294;2023-02-11T11:24:12;102869.68;;;20.36;10.56
64698;BME280;51124;53.394;-6.294;2023-02-11T11:26:41;102873.07;;;19.59;10.69
64698;BME280;51124;53.394;-6.294;2023-02-11T11:29:09;102876.65;;;20.59;10.63
64698;BME280;51124;53.394;-6.294;2023-02-11T11:31:45;102883.13;;;20.32;10.62
64698;BME280;51124;53.394;-6.294;2023-02-11T11:34:20;102878.07;;;19.81;10.73
64698;BME280;51124;53.394;-6.294;2023-02-11T11:36:44;102871.35;;;19.90;10.73
64698;BME280;51124;53.394;-6.294;2023-02-11T11:39:22;102875.55;;;20.43;10.68
64698;BME280;51124;53.394;-6.294;2023-02-11T11:41:53;102876.06;;;20.06;10.67
64698;BME280;51124;53.394;-6.294;2023-02-11T11:44:23;102875.15;;;20.16;10.68
64698;BME280;51124;53.394;-6.294;2023-02-11T11:46:51;102871.90;;;20.17;10.69
64698;BME280;51124;53.394;-6.294;2023-02-11T11:49:24;102870.39;;;20.09;10.70
64698;BME280;51124;53.394;-6.294;2023-02-11T11:51:54;102871.38;;;20.22;11.39
64698;BME280;51124;53.394;-6.294;2023-02-11T11:54:20;102871.31;;;20.46;11.83
64698;BME280;51124;53.394;-6.294;2023-02-11T11:56:52;102866.34;;;20.46;11.50
64698;BME280;51124;53.394;-6.294;2023-02-11T11:59:17;102866.94;;;19.18;11.11
64698;BME280;51124;53.394;-6.294;2023-02-11T12:02:03;102864.96;;;18.74;10.64
64698;BME280;51124;53.394;-6.294;2023-02-11T12:04:40;102857.87;;;19.09;10.14
64698;BME280;51124;53.394;-6.294;2023-02-11T12:07:05;102852.05;;;18.95;9.90
64698;BME280;51124;53.394;-6.294;2023-02-11T12:09:30;102856.09;;;18.52;9.56
64698;BME280;51124;53.394;-6.294;2023-02-11T12:12:08;102842.32;;;18.44;9.34
64698;BME280;51124;53.394;-6.294;2023-02-11T12:14:33;102841.82;;;18.55;9.08
64698;BME280;51124;53.394;-6.294;2023-02-11T12:17:02;102833.38;;;18.81;8.86
64698;BME280;51124;53.394;-6.294;2023-02-11T12:19:51;102833.36;;;18.76;8.82
64698;BME280;51124;53.394;-6.294;2023-02-11T12:22:04;102828.46;;;18.81;8.91
64698;BME280;51124;53.394;-6.294;2023-02-11T12:24:44;102825.08;;;18.22;8.99
64698;BME280;51124;53.394;-6.294;2023-02-11T12:27:07;102824.87;;;18.06;9.04
64698;BME280;51124;53.394;-6.294;2023-02-11T12:29:44;102828.30;;;18.14;8.86
64698;BME280;51124;53.394;-6.294;2023-02-11T12:32:12;102830.01;;;18.73;8.47
64698;BME280;51124;53.394;-6.294;2023-02-11T12:35:40;102833.34;;;17.91;8.42
64698;BME280;51124;53.394;-6.294;2023-02-11T12:37:03;102830.46;;;17.42;8.46
64698;BME280;51124;53.394;-6.294;2023-02-11T12:39:34;102831.60;;;19.04;8.25
64698;BME280;51124;53.394;-6.294;2023-02-11T12:42:11;102832.11;;;18.35;8.50
64698;BME280;51124;53.394;-6.294;2023-02-11T12:44:35;102825.67;;;18.18;8.42
64698;BME280;51124;53.394;-6.294;2023-02-11T12:46:57;102827.98;;;18.56;8.37
64698;BME280;51124;53.394;-6.294;2023-02-11T12:49:29;102831.56;;;18.65;8.39
64698;BME280;51124;53.394;-6.294;2023-02-11T12:51:54;102832.76;;;18.33;8.42
64698;BME280;51124;53.394;-6.294;2023-02-11T12:54:23;102844.53;;;18.49;8.59
64698;BME280;51124;53.394;-6.294;2023-02-11T12:56:52;102840.41;;;18.15;8.69
64698;BME280;51124;53.394;-6.294;2023-02-11T12:59:30;102837.93;;;18.60;8.70